Gregorytown, New York
Current Conditions -  °F | °C
As of 1:35 PM on Thursday 23 Oct 2014 (Local Time) from KMSV Reporting Station
Broken Clouds Broken Clouds  
Wind Chill:   Ceiling: 6000
Heat Index:   Visibility: 10mi
Dew Point:   Wind: 10mph
Humidity: 93%   Direction: 360°N
Pressure: 29.79"   Gusts: 23mph
Location:  42.0755°N, 75.0491°W
Report Text: KMSV 231735Z AUTO 36009G20KT 10SM FEW018 SCT043 BKN060 08/07 A2979 RMK AO1
Loading
Personal Weather Stations






























Interactive Weather Map
Tropical Storm Tracking
New forecast layout! Learn more

10-Day Weather Forecast

Advertisements
Track Severe Weather on mobile